sensor_id;sensor_type;location;lat;lon;timestamp;pressure;altitude;pressure_sealevel;temperature;humidity
70072;BME280;57434;42.794;23.302;2023-04-01T00:00:46;94688.03;;;8.05;67.84
70072;BME280;57434;42.794;23.302;2023-04-01T00:01:48;94769.38;;;8.56;67.92
70072;BME280;57434;42.794;23.302;2023-04-01T00:02:49;94813.19;;;8.75;68.15
70072;BME280;57434;42.794;23.302;2023-04-01T00:03:51;94787.53;;;8.77;67.65
70072;BME280;57434;42.794;23.302;2023-04-01T00:04:53;94760.69;;;8.48;68.38
70072;BME280;57434;42.794;23.302;2023-04-01T00:05:56;94647.56;;;7.84;68.23
70072;BME280;57434;42.794;23.302;2023-04-01T00:06:59;94774.81;;;8.76;68.00
70072;BME280;57434;42.794;23.302;2023-04-01T00:08:00;94719.41;;;8.26;67.79
70072;BME280;57434;42.794;23.302;2023-04-01T00:09:02;94648.09;;;7.88;67.72
70072;BME280;57434;42.794;23.302;2023-04-01T00:10:07;94810.19;;;8.84;68.46
70072;BME280;57434;42.794;23.302;2023-04-01T00:11:10;94808.59;;;8.72;68.77
70072;BME280;57434;42.794;23.302;2023-04-01T00:12:11;94784.00;;;8.88;68.77
70072;BME280;57434;42.794;23.302;2023-04-01T00:13:13;94639.97;;;7.90;68.46
70072;BME280;57434;42.794;23.302;2023-04-01T00:14:15;94781.19;;;8.88;68.56
70072;BME280;57434;42.794;23.302;2023-04-01T00:15:17;94751.16;;;8.77;68.55
70072;BME280;57434;42.794;23.302;2023-04-01T00:16:19;94791.25;;;8.57;69.09
70072;BME280;57434;42.794;23.302;2023-04-01T00:17:23;94759.00;;;8.19;69.03
70072;BME280;57434;42.794;23.302;2023-04-01T00:18:24;94788.44;;;8.63;68.87
70072;BME280;57434;42.794;23.302;2023-04-01T00:19:26;94780.09;;;8.68;68.56
70072;BME280;57434;42.794;23.302;2023-04-01T00:20:28;94752.91;;;8.69;68.40
70072;BME280;57434;42.794;23.302;2023-04-01T00:21:30;94797.97;;;8.88;68.36
70072;BME280;57434;42.794;23.302;2023-04-01T00:22:32;94778.66;;;8.84;67.98
70072;BME280;57434;42.794;23.302;2023-04-01T00:23:34;94689.25;;;8.41;67.94
70072;BME280;57434;42.794;23.302;2023-04-01T00:24:35;94660.72;;;8.21;67.13
70072;BME280;57434;42.794;23.302;2023-04-01T00:25:37;94774.59;;;8.91;66.96
70072;BME280;57434;42.794;23.302;2023-04-01T00:26:39;94692.81;;;8.42;66.89
70072;BME280;57434;42.794;23.302;2023-04-01T00:27:41;94785.53;;;8.94;67.37
70072;BME280;57434;42.794;23.302;2023-04-01T00:28:42;94776.63;;;8.90;68.23
70072;BME280;57434;42.794;23.302;2023-04-01T00:29:47;94799.56;;;9.00;68.01
70072;BME280;57434;42.794;23.302;2023-04-01T00:30:49;94785.53;;;8.94;67.39
70072;BME280;57434;42.794;23.302;2023-04-01T00:31:51;94778.66;;;8.90;66.82
70072;BME280;57434;42.794;23.302;2023-04-01T00:32:53;94761.34;;;8.80;66.65
70072;BME280;57434;42.794;23.302;2023-04-01T00:33:55;94784.69;;;8.71;66.81
70072;BME280;57434;42.794;23.302;2023-04-01T00:34:56;94769.81;;;8.43;66.92
70072;BME280;57434;42.794;23.302;2023-04-01T00:36:12;94653.59;;;7.77;67.58
70072;BME280;57434;42.794;23.302;2023-04-01T00:37:14;94655.47;;;7.91;67.45
70072;BME280;57434;42.794;23.302;2023-04-01T00:38:16;94681.44;;;8.03;67.19
70072;BME280;57434;42.794;23.302;2023-04-01T00:39:18;94760.97;;;8.50;67.32
70072;BME280;57434;42.794;23.302;2023-04-01T00:40:35;94771.63;;;8.52;67.37
70072;BME280;57434;42.794;23.302;2023-04-01T00:41:37;94749.22;;;8.40;68.00
70072;BME280;57434;42.794;23.302;2023-04-01T00:42:38;94755.97;;;8.23;67.93
70072;BME280;57434;42.794;23.302;2023-04-01T00:43:41;94761.13;;;8.35;68.02
70072;BME280;57434;42.794;23.302;2023-04-01T00:44:49;94705.06;;;8.02;68.37
70072;BME280;57434;42.794;23.302;2023-04-01T00:45:51;94732.19;;;8.44;68.19
70072;BME280;57434;42.794;23.302;2023-04-01T00:46:53;94722.78;;;8.41;68.10
70072;BME280;57434;42.794;23.302;2023-04-01T00:47:56;94732.94;;;8.39;68.13
70072;BME280;57434;42.794;23.302;2023-04-01T00:49:00;94740.03;;;8.34;68.67
70072;BME280;57434;42.794;23.302;2023-04-01T00:50:02;94606.25;;;7.51;68.37
70072;BME280;57434;42.794;23.302;2023-04-01T00:51:07;94708.47;;;8.23;68.31
70072;BME280;57434;42.794;23.302;2023-04-01T00:52:13;94760.91;;;8.44;68.09
70072;BME280;57434;42.794;23.302;2023-04-01T00:53:17;94731.09;;;8.25;68.55
70072;BME280;57434;42.794;23.302;2023-04-01T00:54:21;94604.97;;;7.46;68.45
70072;BME280;57434;42.794;23.302;2023-04-01T00:55:27;94581.59;;;7.44;68.29
70072;BME280;57434;42.794;23.302;2023-04-01T00:56:37;94718.66;;;8.31;68.24
70072;BME280;57434;42.794;23.302;2023-04-01T00:57:42;94702.09;;;8.16;68.49
70072;BME280;57434;42.794;23.302;2023-04-01T00:58:49;94602.53;;;7.65;68.57
70072;BME280;57434;42.794;23.302;2023-04-01T00:59:54;94675.88;;;8.08;69.07
70072;BME280;57434;42.794;23.302;2023-04-01T01:00:58;94699.63;;;8.30;68.76
70072;BME280;57434;42.794;23.302;2023-04-01T01:02:02;94717.19;;;8.41;68.62
70072;BME280;57434;42.794;23.302;2023-04-01T01:03:04;94595.88;;;7.57;68.93
70072;BME280;57434;42.794;23.302;2023-04-01T01:04:06;94687.63;;;8.18;68.82
70072;BME280;57434;42.794;23.302;2023-04-01T01:05:12;94710.03;;;8.35;68.17
70072;BME280;57434;42.794;23.302;2023-04-01T01:06:54;94713.63;;;8.41;68.76
70072;BME280;57434;42.794;23.302;2023-04-01T01:08:01;94730.59;;;8.26;69.38
70072;BME280;57434;42.794;23.302;2023-04-01T01:10:48;94566.84;;;7.38;68.90
70072;BME280;57434;42.794;23.302;2023-04-01T01:11:56;94566.41;;;7.45;68.48
70072;BME280;57434;42.794;23.302;2023-04-01T01:13:11;94702.97;;;7.91;69.67
70072;BME280;57434;42.794;23.302;2023-04-01T01:14:29;94611.91;;;7.31;69.48
70072;BME280;57434;42.794;23.302;2023-04-01T01:15:46;94719.03;;;8.07;69.29
70072;BME280;57434;42.794;23.302;2023-04-01T01:16:54;94697.09;;;7.89;68.79
70072;BME280;57434;42.794;23.302;2023-04-01T01:20:57;94708.00;;;8.30;68.59
70072;BME280;57434;42.794;23.302;2023-04-01T01:25:15;94703.22;;;8.41;67.87
70072;BME280;57434;42.794;23.302;2023-04-01T01:27:51;94697.22;;;8.11;68.49
70072;BME280;57434;42.794;23.302;2023-04-01T01:30:39;94520.16;;;7.01;68.68
70072;BME280;57434;42.794;23.302;2023-04-01T01:32:06;94674.41;;;8.19;68.72
70072;BME280;57434;42.794;23.302;2023-04-01T01:36:20;94561.22;;;7.01;69.67
70072;BME280;57434;42.794;23.302;2023-04-01T01:37:25;94678.84;;;7.94;69.53
70072;BME280;57434;42.794;23.302;2023-04-01T01:38:31;94685.25;;;8.05;69.17
70072;BME280;57434;42.794;23.302;2023-04-01T01:39:35;94706.56;;;8.03;69.50
70072;BME280;57434;42.794;23.302;2023-04-01T01:40:41;94655.13;;;7.78;69.35
70072;BME280;57434;42.794;23.302;2023-04-01T01:41:45;94558.00;;;7.08;69.49
70072;BME280;57434;42.794;23.302;2023-04-01T01:42:52;94658.91;;;7.69;70.04
70072;BME280;57434;42.794;23.302;2023-04-01T01:43:56;94652.69;;;7.54;69.96
70072;BME280;57434;42.794;23.302;2023-04-01T01:44:59;94675.13;;;7.65;70.12
70072;BME280;57434;42.794;23.302;2023-04-01T01:46:07;94583.16;;;7.13;70.11
70072;BME280;57434;42.794;23.302;2023-04-01T01:47:10;94695.75;;;7.79;70.14
70072;BME280;57434;42.794;23.302;2023-04-01T01:48:14;94679.13;;;7.59;70.32
70072;BME280;57434;42.794;23.302;2023-04-01T01:49:18;94697.50;;;7.71;70.51
70072;BME280;57434;42.794;23.302;2023-04-01T01:50:21;94694.06;;;7.56;70.69
70072;BME280;57434;42.794;23.302;2023-04-01T01:51:25;94707.13;;;7.38;71.14
70072;BME280;57434;42.794;23.302;2023-04-01T01:52:28;94716.66;;;7.58;71.04
70072;BME280;57434;42.794;23.302;2023-04-01T01:53:30;94667.84;;;7.42;71.01
70072;BME280;57434;42.794;23.302;2023-04-01T01:54:32;94698.34;;;7.51;71.21
70072;BME280;57434;42.794;23.302;2023-04-01T01:55:36;94568.59;;;6.72;71.05
70072;BME280;57434;42.794;23.302;2023-04-01T01:56:41;94658.03;;;7.26;71.07
70072;BME280;57434;42.794;23.302;2023-04-01T01:57:44;94647.28;;;7.39;70.73
70072;BME280;57434;42.794;23.302;2023-04-01T01:58:52;94685.69;;;7.56;70.40
70072;BME280;57434;42.794;23.302;2023-04-01T02:00:00;94685.75;;;7.61;70.49
70072;BME280;57434;42.794;23.302;2023-04-01T02:01:04;94539.50;;;6.47;70.37
70072;BME280;57434;42.794;23.302;2023-04-01T02:02:08;94581.97;;;6.94;70.24
70072;BME280;57434;42.794;23.302;2023-04-01T02:03:13;94549.50;;;6.60;70.69
70072;BME280;57434;42.794;23.302;2023-04-01T02:04:17;94675.53;;;7.27;71.13
70072;BME280;57434;42.794;23.302;2023-04-01T02:05:25;94685.03;;;7.35;71.01
70072;BME280;57434;42.794;23.302;2023-04-01T02:06:31;94691.44;;;7.15;71.39
70072;BME280;57434;42.794;23.302;2023-04-01T02:07:35;94528.97;;;6.31;72.09
70072;BME280;57434;42.794;23.302;2023-04-01T02:09:01;94640.84;;;7.02;72.59
70072;BME280;57434;42.794;23.302;2023-04-01T02:10:05;94672.19;;;7.23;72.59
70072;BME280;57434;42.794;23.302;2023-04-01T02:11:12;94570.97;;;6.54;72.41
70072;BME280;57434;42.794;23.302;2023-04-01T02:12:16;94586.81;;;6.68;72.03
70072;BME280;57434;42.794;23.302;2023-04-01T02:13:29;94691.69;;;7.17;72.08
70072;BME280;57434;42.794;23.302;2023-04-01T02:14:57;94677.97;;;7.13;72.75
70072;BME280;57434;42.794;23.302;2023-04-01T02:16:04;94681.97;;;7.07;73.45
70072;BME280;57434;42.794;23.302;2023-04-01T02:17:10;94673.44;;;6.90;74.09
70072;BME280;57434;42.794;23.302;2023-04-01T02:18:14;94524.38;;;6.02;73.67
70072;BME280;57434;42.794;23.302;2023-04-01T02:19:17;94688.16;;;6.91;74.77
70072;BME280;57434;42.794;23.302;2023-04-01T02:20:21;94690.00;;;6.99;74.93
70072;BME280;57434;42.794;23.302;2023-04-01T02:21:26;94577.75;;;6.47;74.61
70072;BME280;57434;42.794;23.302;2023-04-01T02:22:33;94668.84;;;7.13;74.18
70072;BME280;57434;42.794;23.302;2023-04-01T02:23:36;94664.88;;;7.25;73.92
70072;BME280;57434;42.794;23.302;2023-04-01T02:24:41;94533.06;;;6.36;74.02
70072;BME280;57434;42.794;23.302;2023-04-01T02:25:44;94618.03;;;7.03;74.01
70072;BME280;57434;42.794;23.302;2023-04-01T02:26:47;94652.41;;;7.21;74.14
70072;BME280;57434;42.794;23.302;2023-04-01T02:27:48;94571.59;;;6.69;73.98
70072;BME280;57434;42.794;23.302;2023-04-01T02:28:52;94653.44;;;7.23;74.08
70072;BME280;57434;42.794;23.302;2023-04-01T02:29:54;94678.53;;;7.23;74.17
70072;BME280;57434;42.794;23.302;2023-04-01T02:30:57;94651.47;;;7.29;73.72
70072;BME280;57434;42.794;23.302;2023-04-01T02:32:02;94643.03;;;7.18;73.60
70072;BME280;57434;42.794;23.302;2023-04-01T02:33:05;94639.19;;;7.15;73.63
70072;BME280;57434;42.794;23.302;2023-04-01T02:34:07;94672.47;;;7.51;73.81
70072;BME280;57434;42.794;23.302;2023-04-01T02:35:13;94552.91;;;6.75;73.83
70072;BME280;57434;42.794;23.302;2023-04-01T02:36:16;94614.38;;;7.23;73.90
70072;BME280;57434;42.794;23.302;2023-04-01T02:37:19;94665.38;;;7.55;73.79
70072;BME280;57434;42.794;23.302;2023-04-01T02:38:21;94669.75;;;7.62;73.72
70072;BME280;57434;42.794;23.302;2023-04-01T02:39:23;94673.72;;;7.49;73.60
70072;BME280;57434;42.794;23.302;2023-04-01T02:40:25;94558.00;;;6.76;73.86
70072;BME280;57434;42.794;23.302;2023-04-01T02:41:27;94659.03;;;7.55;73.74
70072;BME280;57434;42.794;23.302;2023-04-01T02:42:29;94651.94;;;7.54;73.88
70072;BME280;57434;42.794;23.302;2023-04-01T02:43:31;94585.63;;;7.06;73.46
70072;BME280;57434;42.794;23.302;2023-04-01T02:44:33;94576.44;;;7.00;73.42
70072;BME280;57434;42.794;23.302;2023-04-01T02:45:35;94645.97;;;7.35;73.92
70072;BME280;57434;42.794;23.302;2023-04-01T02:46:37;94640.88;;;7.33;73.99
70072;BME280;57434;42.794;23.302;2023-04-01T02:47:40;94688.75;;;7.58;73.71
70072;BME280;57434;42.794;23.302;2023-04-01T02:48:41;94558.66;;;6.92;73.60
70072;BME280;57434;42.794;23.302;2023-04-01T02:49:43;94552.81;;;6.90;73.42
70072;BME280;57434;42.794;23.302;2023-04-01T02:50:45;94667.78;;;7.68;73.00
70072;BME280;57434;42.794;23.302;2023-04-01T02:51:47;94645.31;;;7.51;72.99
70072;BME280;57434;42.794;23.302;2023-04-01T02:52:49;94647.59;;;7.53;72.98
70072;BME280;57434;42.794;23.302;2023-04-01T02:53:51;94560.28;;;6.78;73.11
70072;BME280;57434;42.794;23.302;2023-04-01T02:54:53;94596.06;;;7.11;72.98
70072;BME280;57434;42.794;23.302;2023-04-01T02:55:55;94687.66;;;7.81;72.94
70072;BME280;57434;42.794;23.302;2023-04-01T02:56:56;94634.31;;;7.36;72.97
70072;BME280;57434;42.794;23.302;2023-04-01T02:57:58;94678.72;;;7.71;73.00
70072;BME280;57434;42.794;23.302;2023-04-01T02:59:00;94548.25;;;6.92;72.75
70072;BME280;57434;42.794;23.302;2023-04-01T03:00:03;94561.22;;;7.01;73.17
70072;BME280;57434;42.794;23.302;2023-04-01T03:01:05;94700.19;;;7.97;73.13
70072;BME280;57434;42.794;23.302;2023-04-01T03:02:07;94577.09;;;7.21;72.33
70072;BME280;57434;42.794;23.302;2023-04-01T03:03:10;94556.41;;;7.01;72.28
70072;BME280;57434;42.794;23.302;2023-04-01T03:04:11;94716.75;;;8.06;72.32
70072;BME280;57434;42.794;23.302;2023-04-01T03:05:13;94697.19;;;8.06;72.61
70072;BME280;57434;42.794;23.302;2023-04-01T03:06:16;94636.81;;;7.66;72.64
70072;BME280;57434;42.794;23.302;2023-04-01T03:07:18;94695.97;;;7.75;73.01
70072;BME280;57434;42.794;23.302;2023-04-01T03:08:20;94703.53;;;8.01;72.74
70072;BME280;57434;42.794;23.302;2023-04-01T03:09:22;94580.66;;;7.21;72.39
70072;BME280;57434;42.794;23.302;2023-04-01T03:10:24;94564.88;;;7.12;72.29
70072;BME280;57434;42.794;23.302;2023-04-01T03:11:26;94700.84;;;7.80;73.17
70072;BME280;57434;42.794;23.302;2023-04-01T03:12:27;94665.72;;;7.63;73.05
70072;BME280;57434;42.794;23.302;2023-04-01T03:13:29;94683.94;;;7.95;72.41
70072;BME280;57434;42.794;23.302;2023-04-01T03:14:31;94690.09;;;8.10;72.16
70072;BME280;57434;42.794;23.302;2023-04-01T03:15:33;94563.19;;;7.26;72.38
70072;BME280;57434;42.794;23.302;2023-04-01T03:16:35;94694.53;;;8.28;72.47
70072;BME280;57434;42.794;23.302;2023-04-01T03:17:38;94569.09;;;7.34;72.31
70072;BME280;57434;42.794;23.302;2023-04-01T03:18:39;94614.44;;;7.60;72.13
70072;BME280;57434;42.794;23.302;2023-04-01T03:19:41;94687.28;;;8.05;72.09
70072;BME280;57434;42.794;23.302;2023-04-01T03:20:43;94719.84;;;8.13;72.63
70072;BME280;57434;42.794;23.302;2023-04-01T03:21:45;94549.25;;;7.26;72.74
70072;BME280;57434;42.794;23.302;2023-04-01T03:22:46;94744.84;;;8.28;72.45
70072;BME280;57434;42.794;23.302;2023-04-01T03:23:49;94582.59;;;7.41;72.38
70072;BME280;57434;42.794;23.302;2023-04-01T03:24:51;94580.47;;;7.30;72.37
70072;BME280;57434;42.794;23.302;2023-04-01T03:25:52;94724.84;;;7.98;73.28
70072;BME280;57434;42.794;23.302;2023-04-01T03:26:54;94606.75;;;7.18;73.95
70072;BME280;57434;42.794;23.302;2023-04-01T03:27:56;94699.31;;;7.79;74.95
70072;BME280;57434;42.794;23.302;2023-04-01T03:28:58;94510.16;;;6.52;75.37
70072;BME280;57434;42.794;23.302;2023-04-01T03:30:00;94704.34;;;7.75;75.27
70072;BME280;57434;42.794;23.302;2023-04-01T03:31:01;94574.19;;;7.04;74.95
70072;BME280;57434;42.794;23.302;2023-04-01T03:32:03;94568.28;;;6.96;75.31
70072;BME280;57434;42.794;23.302;2023-04-01T03:33:06;94573.88;;;6.96;77.23
70072;BME280;57434;42.794;23.302;2023-04-01T03:34:08;94701.81;;;7.72;77.17
70072;BME280;57434;42.794;23.302;2023-04-01T03:35:10;94604.09;;;7.03;77.32
70072;BME280;57434;42.794;23.302;2023-04-01T03:36:12;94676.66;;;7.35;77.74
70072;BME280;57434;42.794;23.302;2023-04-01T03:37:14;94675.88;;;7.34;77.77
70072;BME280;57434;42.794;23.302;2023-04-01T03:38:15;94649.16;;;7.28;77.83
70072;BME280;57434;42.794;23.302;2023-04-01T03:39:17;94648.81;;;7.40;77.95
70072;BME280;57434;42.794;23.302;2023-04-01T03:40:20;94679.66;;;7.63;77.83
70072;BME280;57434;42.794;23.302;2023-04-01T03:41:22;94633.09;;;7.43;78.42
70072;BME280;57434;42.794;23.302;2023-04-01T03:42:24;94571.66;;;7.06;78.14
70072;BME280;57434;42.794;23.302;2023-04-01T03:43:26;94658.94;;;7.75;77.47
70072;BME280;57434;42.794;23.302;2023-04-01T03:44:34;94613.41;;;7.58;76.52
70072;BME280;57434;42.794;23.302;2023-04-01T03:45:46;94538.31;;;7.23;76.55
70072;BME280;57434;42.794;23.302;2023-04-01T03:46:48;94634.09;;;7.82;76.38
70072;BME280;57434;42.794;23.302;2023-04-01T03:47:50;94653.16;;;7.84;76.45
70072;BME280;57434;42.794;23.302;2023-04-01T03:48:52;94673.28;;;7.94;76.28
70072;BME280;57434;42.794;23.302;2023-04-01T03:49:53;94608.69;;;7.80;76.04
70072;BME280;57434;42.794;23.302;2023-04-01T03:50:55;94653.50;;;7.97;76.07
70072;BME280;57434;42.794;23.302;2023-04-01T03:51:57;94647.09;;;7.91;76.04
70072;BME280;57434;42.794;23.302;2023-04-01T03:52:59;94628.34;;;8.03;75.98
70072;BME280;57434;42.794;23.302;2023-04-01T03:54:01;94630.88;;;7.95;77.26
70072;BME280;57434;42.794;23.302;2023-04-01T03:55:03;94617.94;;;7.98;78.01
70072;BME280;57434;42.794;23.302;2023-04-01T03:56:06;94650.00;;;8.13;77.17
70072;BME280;57434;42.794;23.302;2023-04-01T03:57:08;94629.09;;;7.92;77.25
70072;BME280;57434;42.794;23.302;2023-04-01T03:58:10;94502.81;;;7.23;77.15
70072;BME280;57434;42.794;23.302;2023-04-01T03:59:12;94577.19;;;7.69;77.84
70072;BME280;57434;42.794;23.302;2023-04-01T04:00:14;94470.81;;;7.13;77.80
70072;BME280;57434;42.794;23.302;2023-04-01T04:01:20;94573.41;;;7.72;77.86
70072;BME280;57434;42.794;23.302;2023-04-01T04:02:22;94568.75;;;7.58;78.30
70072;BME280;57434;42.794;23.302;2023-04-01T04:03:24;94550.75;;;7.64;78.80
70072;BME280;57434;42.794;23.302;2023-04-01T04:04:27;94596.84;;;7.91;79.16
70072;BME280;57434;42.794;23.302;2023-04-01T04:05:29;94585.41;;;7.89;78.88
70072;BME280;57434;42.794;23.302;2023-04-01T04:06:31;94614.59;;;7.88;79.42
70072;BME280;57434;42.794;23.302;2023-04-01T04:07:37;94451.63;;;6.84;79.83
70072;BME280;57434;42.794;23.302;2023-04-01T04:08:39;94587.63;;;7.79;79.85
70072;BME280;57434;42.794;23.302;2023-04-01T04:09:41;94595.47;;;7.75;79.96
70072;BME280;57434;42.794;23.302;2023-04-01T04:10:44;94577.38;;;7.60;80.42
70072;BME280;57434;42.794;23.302;2023-04-01T04:11:46;94446.31;;;6.86;80.42
70072;BME280;57434;42.794;23.302;2023-04-01T04:12:48;94571.91;;;7.82;80.52
70072;BME280;57434;42.794;23.302;2023-04-01T04:13:50;94567.84;;;7.83;80.34
70072;BME280;57434;42.794;23.302;2023-04-01T04:14:52;94532.00;;;7.65;80.30
70072;BME280;57434;42.794;23.302;2023-04-01T04:15:54;94562.09;;;7.98;80.16
70072;BME280;57434;42.794;23.302;2023-04-01T04:16:56;94391.38;;;6.92;79.97
70072;BME280;57434;42.794;23.302;2023-04-01T04:17:57;94574.06;;;8.09;79.78
70072;BME280;57434;42.794;23.302;2023-04-01T04:18:59;94428.00;;;7.16;79.86
70072;BME280;57434;42.794;23.302;2023-04-01T04:20:01;94523.69;;;7.87;79.98
70072;BME280;57434;42.794;23.302;2023-04-01T04:21:03;94430.63;;;7.36;79.82
70072;BME280;57434;42.794;23.302;2023-04-01T04:22:05;94551.25;;;8.22;79.68
70072;BME280;57434;42.794;23.302;2023-04-01T04:23:07;94553.53;;;8.18;79.38
70072;BME280;57434;42.794;23.302;2023-04-01T04:24:09;94531.16;;;8.12;78.89
70072;BME280;57434;42.794;23.302;2023-04-01T04:25:11;94535.50;;;8.30;78.68
70072;BME280;57434;42.794;23.302;2023-04-01T04:26:14;94565.50;;;8.35;78.71
70072;BME280;57434;42.794;23.302;2023-04-01T04:27:16;94411.38;;;7.38;79.63
70072;BME280;57434;42.794;23.302;2023-04-01T04:28:18;94522.50;;;7.99;80.37
70072;BME280;57434;42.794;23.302;2023-04-01T04:29:20;94439.03;;;7.42;80.32
70072;BME280;57434;42.794;23.302;2023-04-01T04:30:21;94523.78;;;8.09;80.18
70072;BME280;57434;42.794;23.302;2023-04-01T04:31:24;94428.19;;;7.61;79.79
70072;BME280;57434;42.794;23.302;2023-04-01T04:32:26;94519.00;;;8.27;79.57
70072;BME280;57434;42.794;23.302;2023-04-01T04:33:30;94498.38;;;8.07;79.45
70072;BME280;57434;42.794;23.302;2023-04-01T04:34:32;94528.16;;;8.27;79.72
70072;BME280;57434;42.794;23.302;2023-04-01T04:35:34;94521.81;;;8.27;79.67
70072;BME280;57434;42.794;23.302;2023-04-01T04:36:36;94533.00;;;8.49;79.32
70072;BME280;57434;42.794;23.302;2023-04-01T04:37:38;94514.69;;;8.37;79.25
70072;BME280;57434;42.794;23.302;2023-04-01T04:38:40;94528.94;;;8.50;78.88
70072;BME280;57434;42.794;23.302;2023-04-01T04:39:41;94497.19;;;8.47;79.29
70072;BME280;57434;42.794;23.302;2023-04-01T04:40:43;94485.47;;;8.32;79.62
70072;BME280;57434;42.794;23.302;2023-04-01T04:41:45;94515.75;;;8.56;79.66
70072;BME280;57434;42.794;23.302;2023-04-01T04:42:47;94492.84;;;8.30;79.58
70072;BME280;57434;42.794;23.302;2023-04-01T04:43:54;94523.34;;;8.61;79.86
70072;BME280;57434;42.794;23.302;2023-04-01T04:44:57;94373.66;;;7.71;79.68
70072;BME280;57434;42.794;23.302;2023-04-01T04:45:58;94465.94;;;8.43;79.71
70072;BME280;57434;42.794;23.302;2023-04-01T04:47:01;94503.28;;;8.68;79.60
70072;BME280;57434;42.794;23.302;2023-04-01T04:48:03;94525.91;;;8.70;79.78
70072;BME280;57434;42.794;23.302;2023-04-01T04:49:06;94497.44;;;8.44;80.00
70072;BME280;57434;42.794;23.302;2023-04-01T04:50:08;94501.50;;;8.65;80.47
70072;BME280;57434;42.794;23.302;2023-04-01T04:51:16;94421.69;;;8.08;80.67
70072;BME280;57434;42.794;23.302;2023-04-01T04:52:18;94499.72;;;8.51;80.84
70072;BME280;57434;42.794;23.302;2023-04-01T04:53:20;94391.94;;;7.83;80.45
70072;BME280;57434;42.794;23.302;2023-04-01T04:54:22;94470.47;;;8.35;80.05
70072;BME280;57434;42.794;23.302;2023-04-01T04:55:24;94391.94;;;7.66;80.10
70072;BME280;57434;42.794;23.302;2023-04-01T04:56:25;94402.59;;;7.68;79.98
70072;BME280;57434;42.794;23.302;2023-04-01T04:57:27;94411.41;;;7.49;79.53
70072;BME280;57434;42.794;23.302;2023-04-01T04:58:29;94509.81;;;8.09;79.66
70072;BME280;57434;42.794;23.302;2023-04-01T04:59:31;94497.88;;;8.14;79.25
70072;BME280;57434;42.794;23.302;2023-04-01T05:00:33;94508.34;;;8.25;79.55
70072;BME280;57434;42.794;23.302;2023-04-01T05:01:34;94515.22;;;8.41;79.50
70072;BME280;57434;42.794;23.302;2023-04-01T05:02:36;94429.25;;;7.69;78.95
70072;BME280;57434;42.794;23.302;2023-04-01T05:03:39;94370.72;;;7.26;78.50
70072;BME280;57434;42.794;23.302;2023-04-01T05:04:41;94396.69;;;7.43;78.88
70072;BME280;57434;42.794;23.302;2023-04-01T05:05:49;94421.78;;;7.49;78.76
70072;BME280;57434;42.794;23.302;2023-04-01T05:06:51;94379.78;;;7.10;79.07
70072;BME280;57434;42.794;23.302;2023-04-01T05:07:53;94489.16;;;7.85;79.50
70072;BME280;57434;42.794;23.302;2023-04-01T05:08:55;94354.59;;;6.93;79.24
70072;BME280;57434;42.794;23.302;2023-04-01T05:09:57;94467.06;;;7.70;79.25
70072;BME280;57434;42.794;23.302;2023-04-01T05:10:59;94375.22;;;7.07;79.12
70072;BME280;57434;42.794;23.302;2023-04-01T05:12:02;94441.84;;;7.47;78.52
70072;BME280;57434;42.794;23.302;2023-04-01T05:13:03;94478.00;;;7.85;78.11
70072;BME280;57434;42.794;23.302;2023-04-01T05:14:05;94463.00;;;7.71;77.98
70072;BME280;57434;42.794;23.302;2023-04-01T05:15:08;94359.47;;;7.04;78.16
70072;BME280;57434;42.794;23.302;2023-04-01T05:16:15;94387.94;;;7.19;77.90
70072;BME280;57434;42.794;23.302;2023-04-01T05:17:17;94495.22;;;7.77;77.76
70072;BME280;57434;42.794;23.302;2023-04-01T05:18:20;94495.25;;;7.83;78.05
70072;BME280;57434;42.794;23.302;2023-04-01T05:19:22;94387.69;;;7.17;77.78
70072;BME280;57434;42.794;23.302;2023-04-01T05:20:24;94494.50;;;7.82;78.57
70072;BME280;57434;42.794;23.302;2023-04-01T05:21:26;94473.94;;;7.86;79.09
70072;BME280;57434;42.794;23.302;2023-04-01T05:22:27;94413.69;;;7.45;79.64
70072;BME280;57434;42.794;23.302;2023-04-01T05:23:31;94478.53;;;7.89;79.81
70072;BME280;57434;42.794;23.302;2023-04-01T05:24:33;94432.00;;;7.63;79.61
70072;BME280;57434;42.794;23.302;2023-04-01T05:25:37;94441.19;;;7.75;79.43
70072;BME280;57434;42.794;23.302;2023-04-01T05:26:39;94345.59;;;7.15;79.34
70072;BME280;57434;42.794;23.302;2023-04-01T05:27:41;94506.22;;;7.98;78.79
70072;BME280;57434;42.794;23.302;2023-04-01T05:28:43;94485.13;;;7.91;78.97
70072;BME280;57434;42.794;23.302;2023-04-01T05:29:44;94486.69;;;8.09;79.16
70072;BME280;57434;42.794;23.302;2023-04-01T05:30:46;94484.94;;;8.11;79.22
70072;BME280;57434;42.794;23.302;2023-04-01T05:31:48;94436.38;;;7.81;79.49
70072;BME280;57434;42.794;23.302;2023-04-01T05:32:50;94391.88;;;7.49;78.50
70072;BME280;57434;42.794;23.302;2023-04-01T05:33:52;94493.63;;;8.41;78.32
70072;BME280;57434;42.794;23.302;2023-04-01T05:34:54;94344.69;;;7.52;78.09
70072;BME280;57434;42.794;23.302;2023-04-01T05:35:56;94488.78;;;8.42;77.77
70072;BME280;57434;42.794;23.302;2023-04-01T05:36:58;94382.03;;;7.82;77.70
70072;BME280;57434;42.794;23.302;2023-04-01T05:38:00;94327.97;;;7.57;77.13
70072;BME280;57434;42.794;23.302;2023-04-01T05:39:02;94502.50;;;8.29;78.00
70072;BME280;57434;42.794;23.302;2023-04-01T05:40:04;94485.97;;;8.36;79.14
70072;BME280;57434;42.794;23.302;2023-04-01T05:41:06;94480.91;;;8.40;79.55
70072;BME280;57434;42.794;23.302;2023-04-01T05:42:09;94461.09;;;8.38;79.33
70072;BME280;57434;42.794;23.302;2023-04-01T05:43:10;94382.31;;;7.90;78.88
70072;BME280;57434;42.794;23.302;2023-04-01T05:44:12;94478.16;;;8.57;78.72
70072;BME280;57434;42.794;23.302;2023-04-01T05:45:14;94476.34;;;8.60;78.47
70072;BME280;57434;42.794;23.302;2023-04-01T05:46:16;94348.28;;;7.80;78.92
70072;BME280;57434;42.794;23.302;2023-04-01T05:47:18;94447.38;;;8.46;78.70
70072;BME280;57434;42.794;23.302;2023-04-01T05:48:19;94479.63;;;8.86;78.08
70072;BME280;57434;42.794;23.302;2023-04-01T05:49:21;94475.06;;;8.89;77.82
70072;BME280;57434;42.794;23.302;2023-04-01T05:50:23;94462.84;;;8.86;76.86